Terminal Aerodrome Forecast
Issued by NWS Cleveland, OH

Home | Current Version | Previous Version | Graphics & Text | Print | Product List | Glossary On
Versions: 1 2 3 4 5 6 7 8 9 10 11 12 13 14 15 16 17
440
FTUS41 KCLE 200528
TAFCAK
TAF
KCAK 200528Z 2006/2106 25006KT P6SM OVC015
      TEMPO 2008/2010 BKN005
     FM201000 29005KT P6SM BKN005
     FM201400 34005KT P6SM OVC015
     FM201700 34005KT P6SM BKN025
     FM201900 34006KT P6SM BKN040=

USA.gov is the U.S. government's official web portal to all federal, state and local government web resources and services.